Time;durP1;ratioP1;P1;durP2;ratioP2;P2;SDS_P1;SDS_P2;PMS_P1;PMS_P2;Temp;Humidity;BMP_temperature;BMP_pressure;BME280_temperature;BME280_humidity;BME280_pressure;Samples;Min_cycle;Max_cycle;Signal;HPM_P1;HPM_P2
2022/10/22 00:02:06;;;;;;;24.60;22.90;;;;;;;;;;5138523;27;20417;-79
2022/10/22 00:04:33;;;;;;;23.80;22.30;;;;;;;;;;5137963;27;20460;-78
2022/10/22 00:07:02;;;;;;;24.20;22.80;;;;;;;;;;5139182;27;20447;-80
2022/10/22 00:09:30;;;;;;;24.57;23.07;;;;;;;;;;5138943;27;20443;-78
2022/10/22 00:11:58;;;;;;;23.30;21.90;;;;;;;;;;5138443;27;20413;-79
2022/10/22 00:14:25;;;;;;;23.97;22.57;;;;;;;;;;5138256;27;20487;-78
2022/10/22 00:16:52;;;;;;;24.00;22.60;;;;;;;;;;5138892;27;20442;-79
2022/10/22 00:19:20;;;;;;;23.53;22.20;;;;;;;;;;5138513;27;20778;-79
2022/10/22 00:21:47;;;;;;;23.50;21.83;;;;;;;;;;5138404;27;20443;-79
2022/10/22 00:24:16;;;;;;;24.30;22.43;;;;;;;;;;5137726;27;20973;-79
2022/10/22 00:26:43;;;;;;;24.00;22.53;;;;;;;;;;5138699;27;20451;-80
2022/10/22 00:29:10;;;;;;;23.50;22.20;;;;;;;;;;5139387;27;20425;-79
2022/10/22 00:31:38;;;;;;;26.13;24.33;;;;;;;;;;5137704;27;20468;-78
2022/10/22 00:34:05;;;;;;;24.30;22.90;;;;;;;;;;5138306;27;20441;-79
2022/10/22 00:36:32;;;;;;;24.20;22.60;;;;;;;;;;5138565;27;20429;-79
2022/10/22 00:38:59;;;;;;;23.87;22.23;;;;;;;;;;5138881;27;20449;-79
2022/10/22 00:41:28;;;;;;;24.60;22.57;;;;;;;;;;5138475;27;20424;-79
2022/10/22 00:43:56;;;;;;;23.13;21.73;;;;;;;;;;5137683;27;20482;-79
2022/10/22 00:46:24;;;;;;;24.03;22.50;;;;;;;;;;5138490;27;20454;-80
2022/10/22 00:48:52;;;;;;;25.83;24.10;;;;;;;;;;5138042;27;20454;-79
2022/10/22 00:51:20;;;;;;;24.97;22.97;;;;;;;;;;5137617;27;20479;-79
2022/10/22 00:53:50;;;;;;;24.63;22.87;;;;;;;;;;5137029;27;20514;-79
2022/10/22 00:56:18;;;;;;;25.50;23.73;;;;;;;;;;5137676;27;20484;-79
2022/10/22 00:58:49;;;;;;;24.77;22.40;;;;;;;;;;5137744;27;20455;-80
2022/10/22 01:01:18;;;;;;;24.80;23.27;;;;;;;;;;5138040;27;20427;-79
2022/10/22 01:03:46;;;;;;;24.73;22.80;;;;;;;;;;5137709;27;20466;-79
2022/10/22 01:06:15;;;;;;;23.37;22.07;;;;;;;;;;5138242;27;20425;-79
2022/10/22 01:08:46;;;;;;;23.30;21.50;;;;;;;;;;5138059;27;20455;-79
2022/10/22 01:11:16;;;;;;;23.80;22.37;;;;;;;;;;5137288;27;21053;-79
2022/10/22 01:13:49;;;;;;;23.57;21.77;;;;;;;;;;5136751;27;20490;-79
2022/10/22 01:16:19;;;;;;;23.57;21.87;;;;;;;;;;5137931;27;20439;-79
2022/10/22 01:18:52;;;;;;;23.00;21.70;;;;;;;;;;5137632;27;20413;-78
2022/10/22 01:21:24;;;;;;;22.33;21.23;;;;;;;;;;5136882;27;20433;-79
2022/10/22 01:24:21;;;;;;;22.90;21.60;;;;;;;;;;5137434;27;20441;-79
2022/10/22 01:26:58;;;;;;;24.53;22.83;;;;;;;;;;5073085;28;20436;-81
2022/10/22 01:29:28;;;;;;;25.43;22.67;;;;;;;;;;5126784;27;20462;-79
2022/10/22 01:31:57;;;;;;;23.13;21.73;;;;;;;;;;5136775;27;20438;-79
2022/10/22 01:34:25;;;;;;;22.57;21.37;;;;;;;;;;5137166;27;20489;-80
2022/10/22 01:36:54;;;;;;;22.03;20.73;;;;;;;;;;5137938;27;20417;-79
2022/10/22 01:39:22;;;;;;;23.13;21.80;;;;;;;;;;5137308;27;20432;-80
2022/10/22 01:41:49;;;;;;;23.50;21.83;;;;;;;;;;5135822;27;20831;-79
2022/10/22 01:44:24;;;;;;;23.57;21.53;;;;;;;;;;5137196;27;20453;-79
2022/10/22 01:46:56;;;;;;;22.80;21.50;;;;;;;;;;5138103;27;20442;-79
2022/10/22 01:49:26;;;;;;;24.17;22.13;;;;;;;;;;5137471;27;20431;-79
2022/10/22 01:52:00;;;;;;;24.33;22.87;;;;;;;;;;5136441;27;20563;-78
2022/10/22 01:54:32;;;;;;;23.70;22.30;;;;;;;;;;5135832;27;20502;-79
2022/10/22 01:57:06;;;;;;;22.80;21.50;;;;;;;;;;5137021;27;20453;-79
2022/10/22 01:59:35;;;;;;;24.20;22.47;;;;;;;;;;5137315;27;21243;-80
2022/10/22 02:02:08;;;;;;;24.23;22.70;;;;;;;;;;5136304;27;20425;-79
2022/10/22 02:04:40;;;;;;;24.80;23.00;;;;;;;;;;5136671;27;20859;-79
2022/10/22 02:07:09;;;;;;;23.30;21.50;;;;;;;;;;5136279;27;20416;-79
2022/10/22 02:09:37;;;;;;;23.13;21.83;;;;;;;;;;5135717;27;20940;-79
2022/10/22 02:12:07;;;;;;;23.40;21.80;;;;;;;;;;5134941;27;20475;-79
2022/10/22 02:14:37;;;;;;;23.10;21.73;;;;;;;;;;5135665;27;20471;-79
2022/10/22 02:17:08;;;;;;;25.30;23.37;;;;;;;;;;5139507;27;20474;-78
2022/10/22 02:19:38;;;;;;;24.00;22.30;;;;;;;;;;5138994;27;20441;-79
2022/10/22 02:22:05;;;;;;;24.30;22.90;;;;;;;;;;5139356;27;20428;-79
2022/10/22 02:24:33;;;;;;;23.40;22.00;;;;;;;;;;5139429;27;20473;-79
2022/10/22 02:27:05;;;;;;;24.60;23.10;;;;;;;;;;5140015;27;20455;-79
2022/10/22 02:29:35;;;;;;;22.43;20.97;;;;;;;;;;5140197;27;20493;-79
2022/10/22 02:32:04;;;;;;;24.30;22.43;;;;;;;;;;5138709;27;20485;-78
2022/10/22 02:34:33;;;;;;;24.80;21.43;;;;;;;;;;5138792;27;20482;-79
2022/10/22 02:37:02;;;;;;;23.40;21.70;;;;;;;;;;5139876;27;20458;-79
2022/10/22 02:39:30;;;;;;;22.20;21.00;;;;;;;;;;5139429;27;20813;-80
2022/10/22 02:41:58;;;;;;;22.87;21.67;;;;;;;;;;5138716;27;20422;-79
2022/10/22 02:44:25;;;;;;;22.93;21.53;;;;;;;;;;5138219;27;20514;-79
2022/10/22 02:46:52;;;;;;;22.70;21.40;;;;;;;;;;5138903;27;20429;-79
2022/10/22 02:49:20;;;;;;;22.37;21.23;;;;;;;;;;5138945;27;20425;-79
2022/10/22 02:51:49;;;;;;;24.03;22.57;;;;;;;;;;5138179;27;20482;-79
2022/10/22 02:54:17;;;;;;;23.30;21.90;;;;;;;;;;5139207;27;20441;-79
2022/10/22 02:56:44;;;;;;;23.50;22.07;;;;;;;;;;5139138;27;20456;-79
2022/10/22 02:59:11;;;;;;;22.70;21.40;;;;;;;;;;5153690;27;20449;-78
2022/10/22 03:01:39;;;;;;;22.47;21.20;;;;;;;;;;5158913;27;20449;-79
2022/10/22 03:04:06;;;;;;;23.30;21.77;;;;;;;;;;5159587;27;20478;-79
2022/10/22 03:06:33;;;;;;;22.00;20.80;;;;;;;;;;5160386;27;20421;-79
2022/10/22 03:09:02;;;;;;;23.20;21.80;;;;;;;;;;5160211;27;20839;-78
2022/10/22 03:11:29;;;;;;;22.03;20.93;;;;;;;;;;5159759;27;20481;-79
2022/10/22 03:13:57;;;;;;;23.87;22.23;;;;;;;;;;5159171;27;20851;-79
2022/10/22 03:16:24;;;;;;;23.67;22.30;;;;;;;;;;5160549;27;20434;-78
2022/10/22 03:18:51;;;;;;;25.20;23.50;;;;;;;;;;5160284;27;20452;-79
2022/10/22 03:21:22;;;;;;;24.00;22.70;;;;;;;;;;5159936;27;20949;-79
2022/10/22 03:23:49;;;;;;;23.87;22.17;;;;;;;;;;5160177;27;20481;-79
2022/10/22 03:26:18;;;;;;;23.87;22.03;;;;;;;;;;5159178;27;20440;-78
2022/10/22 03:28:47;;;;;;;22.27;20.87;;;;;;;;;;5160415;27;20424;-78
2022/10/22 03:31:14;;;;;;;23.00;21.70;;;;;;;;;;5159375;27;20479;-78
2022/10/22 03:33:41;;;;;;;22.33;21.10;;;;;;;;;;5159832;27;20462;-78
2022/10/22 03:36:09;;;;;;;24.30;21.93;;;;;;;;;;5159748;27;20446;-79
2022/10/22 03:38:37;;;;;;;22.23;20.67;;;;;;;;;;5160111;27;20417;-79
2022/10/22 03:41:05;;;;;;;23.10;21.10;;;;;;;;;;5159555;27;20793;-79
2022/10/22 03:43:34;;;;;;;22.13;20.93;;;;;;;;;;5158748;27;20490;-78
2022/10/22 03:46:01;;;;;;;22.07;20.87;;;;;;;;;;5159346;27;20453;-78
2022/10/22 03:48:29;;;;;;;24.60;22.37;;;;;;;;;;5159339;27;20506;-79
2022/10/22 03:50:56;;;;;;;22.03;20.57;;;;;;;;;;5158985;27;20974;-79
2022/10/22 03:53:23;;;;;;;21.67;20.43;;;;;;;;;;5159113;27;20464;-78
2022/10/22 03:55:51;;;;;;;20.90;19.60;;;;;;;;;;5159964;27;20484;-78
2022/10/22 03:58:18;;;;;;;21.30;20.17;;;;;;;;;;5159221;27;20420;-79
2022/10/22 04:00:47;;;;;;;22.60;21.10;;;;;;;;;;5159530;27;20413;-79
2022/10/22 04:03:14;;;;;;;20.87;19.77;;;;;;;;;;5159047;27;20462;-80
2022/10/22 04:05:42;;;;;;;23.83;22.03;;;;;;;;;;5158390;27;20472;-79
2022/10/22 04:08:09;;;;;;;22.30;20.97;;;;;;;;;;5158934;27;20421;-79
2022/10/22 04:10:36;;;;;;;21.80;20.60;;;;;;;;;;5158860;27;20457;-79
2022/10/22 04:13:04;;;;;;;23.43;22.03;;;;;;;;;;5158273;27;20478;-79
2022/10/22 04:15:31;;;;;;;23.33;21.17;;;;;;;;;;5159032;27;20421;-79
2022/10/22 04:18:00;;;;;;;22.40;20.83;;;;;;;;;;5158331;27;20449;-80
2022/10/22 04:20:28;;;;;;;22.77;21.17;;;;;;;;;;5158620;27;20863;-79
2022/10/22 04:22:55;;;;;;;21.43;20.30;;;;;;;;;;5157763;27;20460;-78
2022/10/22 04:25:23;;;;;;;20.97;19.73;;;;;;;;;;5159119;27;20425;-79
2022/10/22 04:27:50;;;;;;;21.73;20.43;;;;;;;;;;5158051;27;20959;-79
2022/10/22 04:30:18;;;;;;;22.00;20.77;;;;;;;;;;5158839;27;20421;-79
2022/10/22 04:32:45;;;;;;;21.00;19.70;;;;;;;;;;5158198;27;20485;-78
2022/10/22 04:35:14;;;;;;;21.70;19.97;;;;;;;;;;5159036;27;20450;-79
2022/10/22 04:37:41;;;;;;;21.83;20.47;;;;;;;;;;5158335;27;20420;-78
2022/10/22 04:40:09;;;;;;;20.87;19.67;;;;;;;;;;5157832;27;20495;-79
2022/10/22 04:42:37;;;;;;;21.27;20.17;;;;;;;;;;5158162;27;20432;-79
2022/10/22 04:45:05;;;;;;;21.43;20.20;;;;;;;;;;5158933;27;20420;-79
2022/10/22 04:47:32;;;;;;;21.27;20.07;;;;;;;;;;5159282;27;20412;-79
2022/10/22 04:49:59;;;;;;;21.20;20.00;;;;;;;;;;5159283;27;20431;-79
2022/10/22 04:52:28;;;;;;;22.47;21.07;;;;;;;;;;5157552;27;20440;-79
2022/10/22 04:54:55;;;;;;;20.30;19.30;;;;;;;;;;5158997;27;20413;-79
2022/10/22 04:57:22;;;;;;;21.37;20.07;;;;;;;;;;5159395;27;20453;-79
2022/10/22 04:59:50;;;;;;;20.97;19.47;;;;;;;;;;5159072;27;20429;-79
2022/10/22 05:02:17;;;;;;;21.60;20.17;;;;;;;;;;5157559;27;20431;-79
2022/10/22 05:04:44;;;;;;;21.90;20.80;;;;;;;;;;5158631;27;20433;-79
2022/10/22 05:07:12;;;;;;;22.27;21.17;;;;;;;;;;5158149;27;20401;-78
2022/10/22 05:09:40;;;;;;;21.47;20.27;;;;;;;;;;5158461;27;20420;-79
2022/10/22 05:12:08;;;;;;;21.20;20.00;;;;;;;;;;5158339;27;20804;-79
2022/10/22 05:14:35;;;;;;;22.80;21.47;;;;;;;;;;5158017;27;20477;-80
2022/10/22 05:17:03;;;;;;;22.10;20.90;;;;;;;;;;5158427;27;20475;-79
2022/10/22 05:19:32;;;;;;;22.93;21.73;;;;;;;;;;5158797;27;20449;-79
2022/10/22 05:22:00;;;;;;;23.00;20.80;;;;;;;;;;5157747;27;20454;-79
2022/10/22 05:24:28;;;;;;;22.53;21.23;;;;;;;;;;5157548;27;20455;-79
2022/10/22 05:26:57;;;;;;;21.40;20.10;;;;;;;;;;5158756;27;20423;-79
2022/10/22 05:29:24;;;;;;;22.13;20.93;;;;;;;;;;5157918;27;20450;-79
2022/10/22 05:31:52;;;;;;;21.90;20.50;;;;;;;;;;5157414;27;20485;-80
2022/10/22 05:34:19;;;;;;;22.33;21.10;;;;;;;;;;5158321;27;20493;-79
2022/10/22 05:36:47;;;;;;;22.17;20.87;;;;;;;;;;5158498;27;20449;-79
2022/10/22 05:39:14;;;;;;;22.43;20.80;;;;;;;;;;5158907;27;20421;-79
2022/10/22 05:41:41;;;;;;;22.53;21.07;;;;;;;;;;5158306;27;20449;-80
2022/10/22 05:44:11;;;;;;;21.87;20.67;;;;;;;;;;5156958;27;20467;-79
2022/10/22 05:46:39;;;;;;;21.17;19.70;;;;;;;;;;5157864;27;20531;-79
2022/10/22 05:49:07;;;;;;;21.30;20.20;;;;;;;;;;5157767;27;20442;-80
2022/10/22 05:51:35;;;;;;;21.97;20.23;;;;;;;;;;5157204;27;20459;-79
2022/10/22 05:54:03;;;;;;;22.13;20.47;;;;;;;;;;5158146;27;20469;-79
2022/10/22 05:56:31;;;;;;;22.17;20.67;;;;;;;;;;5158092;27;20447;-79
2022/10/22 05:58:59;;;;;;;21.67;20.27;;;;;;;;;;5157280;27;20497;-79
2022/10/22 06:01:29;;;;;;;23.13;21.07;;;;;;;;;;5157407;27;20441;-80
2022/10/22 06:03:56;;;;;;;22.27;20.87;;;;;;;;;;5157795;27;20448;-79
2022/10/22 06:06:27;;;;;;;21.03;19.73;;;;;;;;;;5157639;27;20457;-80
2022/10/22 06:08:55;;;;;;;21.47;20.07;;;;;;;;;;5156898;27;20449;-80
2022/10/22 06:11:23;;;;;;;21.67;20.00;;;;;;;;;;5157032;27;20500;-79
2022/10/22 06:13:51;;;;;;;21.27;20.07;;;;;;;;;;5155374;27;20470;-76
2022/10/22 06:16:18;;;;;;;21.57;20.37;;;;;;;;;;5154311;27;20412;-76
2022/10/22 06:18:47;;;;;;;21.60;20.30;;;;;;;;;;5154349;27;20832;-76
2022/10/22 06:21:16;;;;;;;21.90;20.60;;;;;;;;;;5153696;27;20424;-77
2022/10/22 06:23:44;;;;;;;23.10;21.80;;;;;;;;;;5153463;27;20489;-76
2022/10/22 06:26:11;;;;;;;22.70;21.50;;;;;;;;;;5153822;27;20462;-76
2022/10/22 06:28:39;;;;;;;24.13;22.60;;;;;;;;;;5153862;27;20884;-76
2022/10/22 06:31:06;;;;;;;23.97;22.60;;;;;;;;;;5153716;27;20441;-76
2022/10/22 06:33:40;;;;;;;24.70;23.30;;;;;;;;;;5153512;27;20472;-76
2022/10/22 06:36:12;;;;;;;24.47;22.97;;;;;;;;;;5153890;27;20409;-76
2022/10/22 06:38:40;;;;;;;24.67;23.07;;;;;;;;;;5153783;27;20426;-77
2022/10/22 06:41:08;;;;;;;24.53;23.20;;;;;;;;;;5153590;27;20451;-76
2022/10/22 06:43:36;;;;;;;24.33;22.93;;;;;;;;;;5153447;27;20459;-76
2022/10/22 06:46:04;;;;;;;23.20;21.90;;;;;;;;;;5153500;27;20839;-75
2022/10/22 06:48:31;;;;;;;25.07;23.60;;;;;;;;;;5154181;27;20416;-77
2022/10/22 06:51:02;;;;;;;24.17;22.90;;;;;;;;;;5153606;27;20446;-77
2022/10/22 06:53:31;;;;;;;25.83;24.33;;;;;;;;;;5153439;27;20478;-76
2022/10/22 06:55:58;;;;;;;26.17;24.50;;;;;;;;;;5153859;27;20453;-77
2022/10/22 06:58:25;;;;;;;24.30;22.80;;;;;;;;;;5153855;27;20817;-76
2022/10/22 07:01:00;;;;;;;33.80;30.80;;;;;;;;;;5154392;27;20439;-78
2022/10/22 07:03:28;;;;;;;26.53;24.83;;;;;;;;;;5157208;27;21021;-76
2022/10/22 07:05:55;;;;;;;31.87;29.07;;;;;;;;;;5157405;27;20924;-76
2022/10/22 07:08:22;;;;;;;37.40;34.50;;;;;;;;;;5157437;27;20435;-76
2022/10/22 07:10:51;;;;;;;39.57;35.83;;;;;;;;;;5157620;27;20421;-76
2022/10/22 07:13:19;;;;;;;43.33;39.37;;;;;;;;;;5156186;27;20516;-77
2022/10/22 07:15:46;;;;;;;47.53;43.07;;;;;;;;;;5157010;27;20904;-77
2022/10/22 07:18:13;;;;;;;28.10;26.43;;;;;;;;;;5157580;27;20469;-76
2022/10/22 07:20:41;;;;;;;29.67;27.17;;;;;;;;;;5156132;27;20424;-76
2022/10/22 07:23:09;;;;;;;25.83;23.80;;;;;;;;;;5156427;27;20432;-76
2022/10/22 07:25:36;;;;;;;31.03;28.83;;;;;;;;;;5157021;27;20992;-76
2022/10/22 07:28:05;;;;;;;25.53;24.13;;;;;;;;;;5156646;27;20460;-76
2022/10/22 07:30:32;;;;;;;26.47;24.87;;;;;;;;;;5157346;27;20468;-76
2022/10/22 07:33:00;;;;;;;25.37;23.90;;;;;;;;;;5156439;27;20498;-77
2022/10/22 07:35:27;;;;;;;26.17;24.47;;;;;;;;;;5156737;27;20416;-76
2022/10/22 07:37:55;;;;;;;24.93;23.30;;;;;;;;;;5156003;27;20441;-77
2022/10/22 07:40:22;;;;;;;23.20;22.00;;;;;;;;;;5157062;27;20426;-77
2022/10/22 07:42:49;;;;;;;24.13;22.57;;;;;;;;;;5155966;27;20440;-75
2022/10/22 07:45:18;;;;;;;23.27;21.97;;;;;;;;;;5156795;27;20447;-76
2022/10/22 07:47:45;;;;;;;24.40;22.27;;;;;;;;;;5156857;27;20445;-76
2022/10/22 07:50:12;;;;;;;22.60;21.40;;;;;;;;;;5156860;27;20466;-76
2022/10/22 07:52:40;;;;;;;23.53;22.13;;;;;;;;;;5156084;27;20570;-76
2022/10/22 07:55:07;;;;;;;24.30;20.77;;;;;;;;;;5156599;27;20450;-76
2022/10/22 07:57:35;;;;;;;21.90;20.57;;;;;;;;;;5156251;27;20914;-76
2022/10/22 08:00:03;;;;;;;20.73;19.63;;;;;;;;;;5155695;27;20863;-75
2022/10/22 08:02:31;;;;;;;24.60;22.37;;;;;;;;;;5155805;27;20465;-76
2022/10/22 08:04:59;;;;;;;21.73;20.53;;;;;;;;;;5156244;27;20947;-75
2022/10/22 08:07:26;;;;;;;22.90;21.47;;;;;;;;;;5156540;27;20486;-76
2022/10/22 08:09:54;;;;;;;24.07;22.30;;;;;;;;;;5156377;27;20424;-77
2022/10/22 08:12:21;;;;;;;21.77;20.57;;;;;;;;;;5154941;27;20535;-75
2022/10/22 08:14:49;;;;;;;27.10;25.40;;;;;;;;;;5154920;27;20473;-76
2022/10/22 08:17:16;;;;;;;32.40;29.30;;;;;;;;;;5156080;27;20923;-77
2022/10/22 08:19:45;;;;;;;26.27;24.33;;;;;;;;;;5155888;27;20428;-76
2022/10/22 08:22:13;;;;;;;22.57;21.17;;;;;;;;;;5156650;27;20412;-75
2022/10/22 08:24:40;;;;;;;21.50;20.20;;;;;;;;;;5156855;27;20450;-76
2022/10/22 08:27:08;;;;;;;21.20;19.80;;;;;;;;;;5155476;27;20460;-76
2022/10/22 08:29:35;;;;;;;23.03;21.30;;;;;;;;;;5155853;27;20431;-76
2022/10/22 08:32:03;;;;;;;20.97;19.67;;;;;;;;;;5155224;27;20421;-76
2022/10/22 08:34:31;;;;;;;21.17;19.93;;;;;;;;;;5155690;27;20436;-76
2022/10/22 08:37:00;;;;;;;22.10;21.00;;;;;;;;;;5155996;27;20432;-76
2022/10/22 08:39:27;;;;;;;24.13;22.83;;;;;;;;;;5155148;27;20486;-76
2022/10/22 08:41:58;;;;;;;23.40;21.87;;;;;;;;;;5154982;27;20446;-77
2022/10/22 08:44:43;;;;;;;21.90;20.70;;;;;;;;;;5155401;27;20512;-76
2022/10/22 08:47:16;;;;;;;20.83;19.73;;;;;;;;;;5155311;27;20447;-76
2022/10/22 08:49:43;;;;;;;21.20;20.00;;;;;;;;;;5154894;27;20982;-77
2022/10/22 08:52:15;;;;;;;20.63;19.40;;;;;;;;;;5155052;27;20442;-76
2022/10/22 08:54:47;;;;;;;20.50;19.33;;;;;;;;;;5155336;27;20504;-76
2022/10/22 08:57:25;;;;;;;21.43;20.00;;;;;;;;;;5155532;27;20399;-76
2022/10/22 08:59:54;;;;;;;22.17;20.13;;;;;;;;;;5155252;27;20504;-76
2022/10/22 09:02:28;;;;;;;20.50;19.20;;;;;;;;;;5154678;27;20421;-76
2022/10/22 09:04:58;;;;;;;20.90;19.50;;;;;;;;;;5155423;27;20433;-76
2022/10/22 09:07:28;;;;;;;22.20;20.77;;;;;;;;;;5155384;27;20422;-76
2022/10/22 09:09:57;;;;;;;20.87;19.63;;;;;;;;;;5154949;27;20922;-77
2022/10/22 09:12:25;;;;;;;23.07;21.57;;;;;;;;;;5154028;27;20422;-76
2022/10/22 09:14:52;;;;;;;22.47;21.17;;;;;;;;;;5155116;27;20424;-75
2022/10/22 09:17:22;;;;;;;21.23;20.00;;;;;;;;;;5154940;27;20459;-76
2022/10/22 09:19:56;;;;;;;21.90;20.50;;;;;;;;;;5154706;27;20620;-76
2022/10/22 09:22:28;;;;;;;23.77;20.50;;;;;;;;;;5154638;27;20765;-76
2022/10/22 09:24:59;;;;;;;22.07;20.80;;;;;;;;;;5154141;27;20790;-77
2022/10/22 09:27:28;;;;;;;21.70;20.50;;;;;;;;;;5154767;27;20476;-77
2022/10/22 09:29:56;;;;;;;22.17;20.77;;;;;;;;;;5154994;27;20492;-76
2022/10/22 09:32:24;;;;;;;22.73;21.10;;;;;;;;;;5154027;27;20450;-77
2022/10/22 09:34:51;;;;;;;21.67;20.37;;;;;;;;;;5154436;27;20477;-77
2022/10/22 09:37:19;;;;;;;20.57;19.17;;;;;;;;;;5154315;27;20466;-76
2022/10/22 09:39:48;;;;;;;21.50;20.30;;;;;;;;;;5154743;27;20422;-76
2022/10/22 09:42:17;;;;;;;19.60;18.40;;;;;;;;;;5154129;27;20449;-78
2022/10/22 09:44:45;;;;;;;19.90;18.90;;;;;;;;;;5154703;27;20441;-77
2022/10/22 09:47:27;;;;;;;19.80;18.40;;;;;;;;;;5154445;27;20453;-77
2022/10/22 09:50:05;;;;;;;19.83;18.70;;;;;;;;;;5153950;27;20962;-76
2022/10/22 09:52:35;;;;;;;20.40;18.90;;;;;;;;;;5153515;27;20441;-76
2022/10/22 09:55:03;;;;;;;19.83;18.70;;;;;;;;;;5154903;27;20452;-76
2022/10/22 09:57:35;;;;;;;19.93;18.40;;;;;;;;;;5154318;27;20447;-77
2022/10/22 10:00:02;;;;;;;19.43;18.40;;;;;;;;;;5154843;27;20471;-77
2022/10/22 10:02:29;;;;;;;18.93;17.53;;;;;;;;;;5153262;27;20440;-77
2022/10/22 10:04:58;;;;;;;19.57;17.87;;;;;;;;;;5154153;27;20455;-77
2022/10/22 10:07:26;;;;;;;18.17;17.10;;;;;;;;;;5154163;27;20448;-77
2022/10/22 10:09:54;;;;;;;17.70;16.70;;;;;;;;;;5154191;27;20456;-77
2022/10/22 10:12:35;;;;;;;19.73;17.93;;;;;;;;;;5153423;27;20451;-76
2022/10/22 10:15:07;;;;;;;19.60;17.80;;;;;;;;;;5154162;27;20455;-77
2022/10/22 10:17:37;;;;;;;18.57;17.10;;;;;;;;;;5154155;27;20905;-76
2022/10/22 10:20:14;;;;;;;18.73;17.40;;;;;;;;;;5154230;27;20934;-77
2022/10/22 10:22:45;;;;;;;18.57;17.47;;;;;;;;;;5153117;27;20893;-77
2022/10/22 10:25:28;;;;;;;19.73;18.10;;;;;;;;;;5154443;27;20435;-76
2022/10/22 10:28:01;;;;;;;18.77;17.73;;;;;;;;;;5154036;27;20429;-76
2022/10/22 10:30:28;;;;;;;18.60;17.20;;;;;;;;;;5154432;27;20438;-77
2022/10/22 10:33:04;;;;;;;17.07;15.87;;;;;;;;;;5153540;27;20496;-76
2022/10/22 10:35:35;;;;;;;15.40;14.57;;;;;;;;;;5139827;27;20473;-85
2022/10/22 10:38:16;;;;;;;17.77;16.40;;;;;;;;;;5122729;28;20434;-84
2022/10/22 10:40:47;;;;;;;16.47;15.47;;;;;;;;;;5124858;27;20424;-85
2022/10/22 10:43:17;;;;;;;17.50;16.30;;;;;;;;;;5143346;27;20468;-79
2022/10/22 10:45:50;;;;;;;17.30;16.30;;;;;;;;;;5139073;27;20473;-79
2022/10/22 10:48:31;;;;;;;18.43;17.43;;;;;;;;;;5138042;27;20443;-85
2022/10/22 10:51:03;;;;;;;19.17;17.97;;;;;;;;;;5139269;27;20960;-77
2022/10/22 10:53:38;;;;;;;17.80;16.83;;;;;;;;;;5137109;27;20930;-76
2022/10/22 10:56:07;;;;;;;19.20;17.80;;;;;;;;;;5136850;27;20958;-77
2022/10/22 10:58:42;;;;;;;17.33;16.43;;;;;;;;;;5136149;27;20816;-77
2022/10/22 11:01:14;;;;;;;19.77;18.47;;;;;;;;;;5136118;27;20448;-77
2022/10/22 11:03:48;;;;;;;18.73;17.33;;;;;;;;;;5136220;27;20485;-76
2022/10/22 11:06:16;;;;;;;18.60;17.40;;;;;;;;;;5136954;27;20415;-77
2022/10/22 11:08:47;;;;;;;19.30;17.63;;;;;;;;;;5136658;27;20429;-77
2022/10/22 11:11:17;;;;;;;17.80;16.70;;;;;;;;;;5136129;27;20485;-76
2022/10/22 11:13:48;;;;;;;17.93;17.03;;;;;;;;;;5136494;27;20493;-77
2022/10/22 11:16:19;;;;;;;17.90;16.60;;;;;;;;;;5136592;27;20433;-77
2022/10/22 11:18:50;;;;;;;18.83;17.10;;;;;;;;;;5136119;27;20446;-76
2022/10/22 11:21:19;;;;;;;18.53;17.10;;;;;;;;;;5136190;27;20447;-77
2022/10/22 11:23:49;;;;;;;18.30;17.13;;;;;;;;;;5136746;27;20436;-78
2022/10/22 11:26:25;;;;;;;20.90;18.70;;;;;;;;;;5136510;27;20445;-77
2022/10/22 11:28:57;;;;;;;18.20;17.20;;;;;;;;;;5137826;27;20441;-80
2022/10/22 11:31:25;;;;;;;20.80;19.20;;;;;;;;;;5137355;27;20441;-79
2022/10/22 11:33:55;;;;;;;19.17;17.97;;;;;;;;;;5137981;27;20604;-79
2022/10/22 11:36:24;;;;;;;18.77;17.40;;;;;;;;;;5137554;27;20434;-79
2022/10/22 11:38:52;;;;;;;18.93;17.73;;;;;;;;;;5137691;27;20468;-79
2022/10/22 11:41:22;;;;;;;18.47;17.17;;;;;;;;;;5136811;27;20496;-80
2022/10/22 11:43:57;;;;;;;18.10;16.93;;;;;;;;;;5137043;27;20464;-78
2022/10/22 11:46:38;;;;;;;19.50;17.97;;;;;;;;;;5137605;27;20473;-79
2022/10/22 11:49:17;;;;;;;18.27;17.17;;;;;;;;;;5137066;27;20424;-78
2022/10/22 11:51:45;;;;;;;18.60;17.27;;;;;;;;;;5136625;27;20440;-78
2022/10/22 11:54:30;;;;;;;19.60;18.00;;;;;;;;;;5136771;27;20496;-78
2022/10/22 11:56:59;;;;;;;16.97;15.67;;;;;;;;;;5137521;27;20439;-79
2022/10/22 11:59:40;;;;;;;18.40;17.30;;;;;;;;;;5136925;27;20457;-79
2022/10/22 12:02:22;;;;;;;19.07;17.57;;;;;;;;;;5135906;27;20450;-76
2022/10/22 12:04:49;;;;;;;19.10;17.60;;;;;;;;;;5135573;27;20901;-76
2022/10/22 12:07:32;;;;;;;19.30;18.00;;;;;;;;;;5136122;27;20446;-76
2022/10/22 12:09:59;;;;;;;19.70;17.93;;;;;;;;;;5135109;27;20476;-76
2022/10/22 12:12:28;;;;;;;20.63;18.63;;;;;;;;;;5135068;27;20449;-76
2022/10/22 12:14:58;;;;;;;18.10;16.60;;;;;;;;;;5135360;27;21006;-77
2022/10/22 12:17:26;;;;;;;17.87;16.77;;;;;;;;;;5135704;27;20445;-76
2022/10/22 12:19:59;;;;;;;18.83;17.60;;;;;;;;;;5134532;27;20466;-75
2022/10/22 12:22:28;;;;;;;18.93;17.70;;;;;;;;;;5134480;27;20758;-76
2022/10/22 12:24:57;;;;;;;18.70;17.37;;;;;;;;;;5135194;27;20444;-76
2022/10/22 12:27:26;;;;;;;18.23;17.00;;;;;;;;;;5135543;27;20769;-76
2022/10/22 12:29:59;;;;;;;18.37;16.83;;;;;;;;;;5135347;27;20460;-79
2022/10/22 12:32:35;;;;;;;18.50;17.27;;;;;;;;;;5136458;27;20475;-80
2022/10/22 12:35:05;;;;;;;19.47;17.67;;;;;;;;;;5137528;27;20477;-79
2022/10/22 12:37:35;;;;;;;18.50;17.27;;;;;;;;;;5138130;27;20422;-79
2022/10/22 12:40:03;;;;;;;19.50;18.30;;;;;;;;;;5137410;27;20433;-80
2022/10/22 12:42:30;;;;;;;20.83;19.17;;;;;;;;;;5136745;27;20779;-79
2022/10/22 12:44:59;;;;;;;20.80;19.23;;;;;;;;;;5136751;27;20442;-79
2022/10/22 12:47:26;;;;;;;19.30;18.00;;;;;;;;;;5137616;27;20515;-82
2022/10/22 12:49:54;;;;;;;19.37;18.00;;;;;;;;;;5137255;27;20450;-80
2022/10/22 12:52:24;;;;;;;19.93;18.57;;;;;;;;;;5135953;27;20427;-79
2022/10/22 12:54:53;;;;;;;19.93;18.60;;;;;;;;;;5136841;27;20559;-79
2022/10/22 12:57:21;;;;;;;21.40;19.97;;;;;;;;;;5135664;27;20436;-78
2022/10/22 12:59:50;;;;;;;20.43;19.10;;;;;;;;;;5136919;27;20428;-78
2022/10/22 13:02:21;;;;;;;19.60;18.50;;;;;;;;;;5134495;27;20779;-79
2022/10/22 13:05:07;;;;;;;20.07;18.77;;;;;;;;;;5136072;27;20405;-78
2022/10/22 13:07:39;;;;;;;18.90;17.70;;;;;;;;;;5136514;27;20815;-79
2022/10/22 13:10:16;;;;;;;19.10;18.00;;;;;;;;;;5135462;27;20468;-78
2022/10/22 13:12:45;;;;;;;17.43;16.43;;;;;;;;;;5135780;27;20512;-79
2022/10/22 13:15:20;;;;;;;19.60;17.97;;;;;;;;;;5135764;27;20493;-79
2022/10/22 13:17:49;;;;;;;17.90;16.67;;;;;;;;;;5136099;27;20452;-78
2022/10/22 13:20:19;;;;;;;18.57;17.47;;;;;;;;;;5135558;27;20464;-79
2022/10/22 13:22:54;;;;;;;17.30;16.40;;;;;;;;;;5135218;27;20481;-79
2022/10/22 13:25:23;;;;;;;20.57;19.07;;;;;;;;;;5136178;27;20468;-78
2022/10/22 13:27:52;;;;;;;19.20;18.20;;;;;;;;;;5135599;27;20935;-78
2022/10/22 13:30:21;;;;;;;20.27;18.90;;;;;;;;;;5135551;27;20471;-79
2022/10/22 13:32:54;;;;;;;18.83;17.83;;;;;;;;;;5134801;27;20462;-79
2022/10/22 13:35:25;;;;;;;19.00;18.00;;;;;;;;;;5135610;27;20482;-78
2022/10/22 13:37:52;;;;;;;19.00;17.90;;;;;;;;;;5135997;27;20798;-79
2022/10/22 13:40:20;;;;;;;19.80;18.70;;;;;;;;;;5135500;27;20450;-78
2022/10/22 13:42:47;;;;;;;20.90;19.13;;;;;;;;;;5134096;27;20444;-78
2022/10/22 13:45:15;;;;;;;19.67;18.40;;;;;;;;;;5135868;27;20450;-79
2022/10/22 13:47:42;;;;;;;20.20;19.10;;;;;;;;;;5134607;27;20452;-79
2022/10/22 13:50:15;;;;;;;20.33;19.03;;;;;;;;;;5135300;27;20447;-79
2022/10/22 13:52:43;;;;;;;21.10;19.90;;;;;;;;;;5135468;27;20442;-79
2022/10/22 13:55:14;;;;;;;19.93;18.93;;;;;;;;;;5135881;27;20496;-80
2022/10/22 13:57:41;;;;;;;21.00;19.70;;;;;;;;;;5135840;27;20397;-79
2022/10/22 14:00:10;;;;;;;19.83;18.57;;;;;;;;;;5135508;27;20421;-78
2022/10/22 14:02:37;;;;;;;19.87;18.47;;;;;;;;;;5135024;27;20469;-79
2022/10/22 14:05:08;;;;;;;21.57;20.10;;;;;;;;;;5135153;27;20427;-79
2022/10/22 14:07:37;;;;;;;18.67;17.60;;;;;;;;;;5135713;27;20491;-79
2022/10/22 14:10:04;;;;;;;19.63;18.30;;;;;;;;;;5135221;28;20426;-79
2022/10/22 14:12:32;;;;;;;19.63;18.00;;;;;;;;;;5137384;27;20420;-79
2022/10/22 14:14:59;;;;;;;19.83;18.73;;;;;;;;;;5139350;27;20484;-78
2022/10/22 14:17:27;;;;;;;18.43;17.43;;;;;;;;;;5139491;27;20971;-79
2022/10/22 14:19:55;;;;;;;19.40;17.83;;;;;;;;;;5140041;27;20439;-79
2022/10/22 14:22:29;;;;;;;18.93;17.50;;;;;;;;;;5138983;27;20495;-79
2022/10/22 14:24:57;;;;;;;18.13;17.03;;;;;;;;;;5139579;27;20408;-79
2022/10/22 14:27:25;;;;;;;19.40;18.10;;;;;;;;;;5139485;27;20433;-78
2022/10/22 14:29:52;;;;;;;18.20;17.30;;;;;;;;;;5139370;27;20452;-80